Sunday, November 19, 2017, 8:51 PM EST
Back to Local

KMSS, Massena International -richards Fld

Location: Massena, NY, United States Lat: 44.933
Local Time: 8:51 PM EST ( 1:51 GMT) Lon: -74.85
Time Zone: US/Eastern Elev: 213 ft

Show me the last for .
Show Decoded

2017-11-19 20:21 METAR KMSS 200121Z AUTO 27012G21KT 10SM BKN026 OVC033 M02/M05 A2966 RMK AO2
                 T10171050 =
2017-11-19 19:53 METAR KMSS 200053Z AUTO 27011G22KT 10SM FEW024 OVC032 M02/M04 A2966 RMK AO2
                 SLP048 T10171044 =
2017-11-19 19:38 METAR KMSS 200038Z AUTO 27012KT 10SM OVC030 M01/M04 A2965 RMK AO2 T10111044 =
2017-11-19 18:53 METAR KMSS 192353Z AUTO 27014G20KT 10SM BKN029 OVC034 M01/M04 A2964 RMK AO2
                 SLP041 60000 T10111044 10000 21011 51017 =
2017-11-19 17:53 METAR KMSS 192253Z AUTO 27015G27KT 10SM FEW022 OVC031 M01/M04 A2961 RMK AO2 PK
                 WND 28027/2244 SNE15 SLP032 P0000 T10061039 =
2017-11-19 17:50 METAR KMSS 192250Z AUTO 27017G27KT 10SM FEW022 OVC031 M01/M04 A2961 RMK AO2 PK
                 WND 28027/2244 SNE15 P0000 =
2017-11-19 17:09 METAR KMSS 192209Z AUTO 27012KT 9SM -SN BKN026 OVC035 M01/M03 A2959 RMK AO2
                 P0000 T10061028 =
2017-11-19 16:53 METAR KMSS 192153Z AUTO 27012G19KT 10SM -SN FEW023 SCT029 OVC034 M01/M03 A2958
                 RMK AO2 SNB50 SLP023 P0000 T10061033 $ =
2017-11-19 15:53 METAR KMSS 192053Z AUTO 25010G17KT 10SM OVC035 M01/M03 A2956 RMK AO2 SLP015
                 T10061028 51034 $ =
2017-11-19 14:53 METAR KMSS 191953Z AUTO 27013KT 10SM FEW025 FEW030 OVC037 M01/M03 A2953 RMK AO2
                 SLP005 T10061028 $ =
2017-11-19 14:36 METAR KMSS 191936Z AUTO 26009G17KT 10SM SCT030 OVC036 M01/M03 A2952 RMK AO2
                 T10061033 $ =
2017-11-19 13:53 METAR KMSS 191853Z AUTO 26012KT 10SM OVC029 M01/M03 A2950 RMK AO2 PK WND
                 26028/1824 SLP994 T10061033 $ =
2017-11-19 12:53 METAR KMSS 191753Z AUTO 27016G24KT 10SM OVC025 M01/M03 A2946 RMK AO2 SLP982
                 60004 T10111033 10006 21011 53022 $ =
2017-11-19 11:53 METAR KMSS 191653Z AUTO 27015G21KT 10SM OVC021 M01/M03 A2943 RMK AO2 SNE26
                 SLP970 P0000 T10111033 $ =
2017-11-19 11:18 METAR KMSS 191618Z AUTO 27016G24KT 6SM -SN BR FEW013 OVC020 M01/M03 A2941 RMK
                 AO2 P0000 T10111028 $ =
2017-11-19 11:07 METAR KMSS 191607Z AUTO 26016G24KT 2SM -SN BR BKN015 OVC020 M01/M02 A2940 RMK
                 AO2 P0000 T10111022 $ =
2017-11-19 10:53 METAR KMSS 191553Z AUTO 27017G21KT 1SM -SN BR SCT012 OVC017 M01/M02 A2940 RMK
                 AO2 SLP960 P0000 T10111022 $ =
2017-11-19 10:51 METAR KMSS 191551Z AUTO 26013G21KT 1SM -SN BR FEW010 BKN017 OVC021 M01/M02 A2939
                 RMK AO2 P0000 $ =
2017-11-19 10:32 METAR KMSS 191532Z AUTO 26013G22KT 1SM -SN BR BKN013 OVC019 M01/M02 A2939 RMK
                 AO2 P0000 T10111022 $ =
2017-11-19 10:18 METAR KMSS 191518Z AUTO 26016G22KT 1SM -SN BR FEW008 OVC015 M01/M02 A2938 RMK
                 AO2 P0000 T10111022 $ =
2017-11-19 10:16 METAR KMSS 191516Z AUTO 26015G23KT 1SM -SN BR OVC013 M01/M02 A2938 RMK AO2 P0000
                 T10111022 $ =
2017-11-19 09:53 METAR KMSS 191453Z AUTO 27014KT 3/4SM -SN BR OVC011 M01/M02 A2935 RMK AO2 PK WND
                 28028/1421 SLP946 P0000 60004 T10111017 53072 $ =
2017-11-19 09:32 METAR KMSS 191432Z AUTO 28015G25KT 1/2SM SN FZFG FEW006 OVC011 M01/M01 A2933 RMK
                 AO2 PK WND 28028/1421 PRESRR P0000 T10061011 $ =
2017-11-19 09:08 METAR KMSS 191408Z AUTO 28014KT 3/4SM -SN BR BKN009 OVC014 M01/M01 A2930 RMK AO2
                 PRESRR P0000 T10061011 $ =
2017-11-19 09:01 METAR KMSS 191401Z AUTO 28016G22KT 3/4SM -SN BR OVC011 M01/M01 A2929 RMK AO2
                 PRESRR P0000 T10061011 $ =
2017-11-19 08:53 METAR KMSS 191353Z AUTO 28017G27KT 1SM -SN BR BKN009 OVC014 M01/M01 A2928 RMK
                 AO2 PK WND 29027/1349 SLP921 P0000 T10061011 $ =
2017-11-19 08:30 METAR KMSS 191330Z AUTO 27014G20KT 1SM -SN BR BKN009 OVC013 00/M01 A2925 RMK AO2
                 CIG 005V011 PRESRR P0000 T00001006 $ =
2017-11-19 08:21 METAR KMSS 191321Z AUTO 28014G21KT 1 1/2SM -SN BR OVC009 00/00 A2924 RMK AO2 CIG
                 005V012 P0000 T00000000 $ =
2017-11-19 07:53 METAR KMSS 191253Z AUTO 28013KT 1SM -SN BR OVC007 01/00 A2921 RMK AO2 SLP894
                 P0004 T00060000 =
2017-11-19 07:25 METAR KMSS 191225Z AUTO 30010KT 3/4SM -SN BR OVC005 01/01 A2917 RMK AO2 P0003
                 T00060006 =
2017-11-19 07:17 METAR KMSS 191217Z AUTO 29010G17KT 1SM -SN BR OVC005 01/01 A2917 RMK AO2 PRESRR
                 P0003 T00060006 =
2017-11-19 07:06 METAR KMSS 191206Z AUTO 30013KT 3/4SM -SN BR OVC005 01/01 A2915 RMK AO2 P0002
                 T00060006 =
2017-11-19 06:53 METAR KMSS 191153Z AUTO 31012G17KT 3/4SM -SN BR OVC004 01/01 A2914 RMK AO2
                 RAE19SNB19 SLP872 P0012 60047 70056 T00060006 10017 20006 53014 =
2017-11-19 06:40 METAR KMSS 191140Z AUTO 30010KT 3/4SM -SN BR OVC005 01/01 A2913 RMK AO2
                 RAE19SNB19 P0009 T00060006 =
2017-11-19 06:32 METAR KMSS 191132Z AUTO 30012KT 1 3/4SM -SN BR OVC005 01/01 A2912 RMK AO2
                 RAE19SNB19 P0006 T00060006 =
2017-11-19 06:04 METAR KMSS 191104Z AUTO 32008KT 7SM RA OVC005 01/01 A2911 RMK AO2 P0002
                 T00110011 =
2017-11-19 05:53 METAR KMSS 191053Z AUTO 32010KT 6SM RA BR OVC004 01/01 A2910 RMK AO2 SLP859
                 P0013 T00110011 =
2017-11-19 04:53 METAR KMSS 190953Z AUTO 35004KT 6SM RA BR OVC004 02/02 A2910 RMK AO2 SLP858
                 P0014 T00170017 =
2017-11-19 03:53 METAR KMSS 190853Z AUTO 01006KT 4SM RA BR OVC003 02/02 A2910 RMK AO2
                 UPE0754RAB0754 SLP859 P0008 60008 T00170017 56028 =
2017-11-19 03:32 METAR KMSS 190832Z AUTO 02007KT 4SM -RA BR OVC003 02/02 A2910 RMK AO2
                 UPE0754RAB0754 P0004 T00170017 =
2017-11-19 03:24 METAR KMSS 190824Z AUTO 02006KT 2 1/2SM -RA BR OVC003 02/02 A2910 RMK AO2
                 UPE0754RAB0754 P0004 T00170017 =
2017-11-19 03:00 METAR KMSS 190800Z AUTO 03007KT 2 1/2SM -RA BR OVC002 02/02 A2912 RMK AO2
                 UPE0754RAB0754 P0001 T00170017 =
2017-11-19 02:53 METAR KMSS 190753Z AUTO 03006KT 3SM UP BR OVC002 02/02 A2911 RMK AO2
                 RAE46UPB0656E07B52 SLP863 P0000 T00170017 =
2017-11-19 01:53 METAR KMSS 190653Z AUTO 05009KT 3SM -RA BR OVC002 01/01 A2914 RMK AO2
                 RAB15UPB16E22 SLP872 P0000 T00110011 =
2017-11-19 01:41 METAR KMSS 190641Z AUTO 05007KT 3SM -RA BR OVC002 01/01 A2915 RMK AO2
                 RAB15UPB16E22 P0000 T00110011 =
2017-11-19 01:23 METAR KMSS 190623Z AUTO 03008KT 2SM -RA BR OVC002 01/01 A2916 RMK AO2
                 RAB15UPB16E22 P0000 T00110011 =
2017-11-19 00:53 METAR KMSS 190553Z AUTO 02006KT 3SM BR OVC002 01/01 A2918 RMK AO2 SLP887 60009
                 T00110011 10017 20006 56050 =
2017-11-19 00:18 METAR KMSS 190518Z AUTO 06009KT 3SM BR OVC003 02/02 A2920 RMK AO2 T00170017 =
2017-11-18 23:53 METAR KMSS 190453Z AUTO 06007KT 2 1/2SM BR OVC004 02/02 A2923 RMK AO2
                 UPB21E31RAB31E32 SLP903 P0000 T00170017 400221078 =
2017-11-18 23:38 METAR KMSS 190438Z AUTO 06007KT 2 1/2SM BR BKN004 OVC021 01/01 A2925 RMK AO2
                 UPB21E31RAB31E32 P0000 T00110011 =
2017-11-18 23:20 METAR KMSS 190420Z AUTO 07009KT 4SM BR SCT004 OVC021 01/01 A2927 RMK AO2
                 T00110011 =
2017-11-18 22:53 METAR KMSS 190353Z AUTO 05008KT 6SM BR BKN004 OVC020 01/01 A2928 RMK AO2
                 RAE39UPB39E44 SLP919 P0001 T00060006 =
2017-11-18 22:44 METAR KMSS 190344Z AUTO 07009KT 5SM BR SCT005 OVC020 01/01 A2927 RMK AO2
                 RAE39UPB39E44 P0001 T00060006 =
2017-11-18 21:53 METAR KMSS 190253Z AUTO 08008KT 6SM -RA BR OVC027 01/00 A2933 RMK AO2 SLP937
                 P0002 60008 T00060000 57042 =
2017-11-18 20:53 METAR KMSS 190153Z AUTO 06011KT 9SM -RA OVC022 01/01 A2936 RMK AO2 RAB05 PRESFR
                 SLP948 P0006 T00110006 =

Support USWX by starting your Amazon purchase here.